sensor_id;sensor_type;location;lat;lon;timestamp;temperature;humidity
65036;DHT22;51603;49.300;8.880;2023-02-24T00:02:05;8.70;99.90
65036;DHT22;51603;49.300;8.880;2023-02-24T00:04:38;8.70;99.90
65036;DHT22;51603;49.300;8.880;2023-02-24T00:07:05;8.70;99.90
65036;DHT22;51603;49.300;8.880;2023-02-24T00:09:31;8.70;99.90
65036;DHT22;51603;49.300;8.880;2023-02-24T00:12:04;8.70;99.90
65036;DHT22;51603;49.300;8.880;2023-02-24T00:14:32;8.70;99.90
65036;DHT22;51603;49.300;8.880;2023-02-24T00:16:59;8.60;99.90
65036;DHT22;51603;49.300;8.880;2023-02-24T00:19:26;8.60;99.90
65036;DHT22;51603;49.300;8.880;2023-02-24T00:21:52;8.50;99.90
65036;DHT22;51603;49.300;8.880;2023-02-24T00:24:19;8.50;99.90
65036;DHT22;51603;49.300;8.880;2023-02-24T00:26:45;8.60;99.90
65036;DHT22;51603;49.300;8.880;2023-02-24T00:29:15;8.50;99.90
65036;DHT22;51603;49.300;8.880;2023-02-24T00:31:41;8.60;99.90
65036;DHT22;51603;49.300;8.880;2023-02-24T00:34:08;8.60;99.90
65036;DHT22;51603;49.300;8.880;2023-02-24T00:36:34;8.60;99.90
65036;DHT22;51603;49.300;8.880;2023-02-24T00:39:03;8.60;99.90
65036;DHT22;51603;49.300;8.880;2023-02-24T00:41:39;8.50;99.90
65036;DHT22;51603;49.300;8.880;2023-02-24T00:44:07;8.50;99.90
65036;DHT22;51603;49.300;8.880;2023-02-24T00:46:40;8.40;99.90
65036;DHT22;51603;49.300;8.880;2023-02-24T00:49:09;8.40;99.90
65036;DHT22;51603;49.300;8.880;2023-02-24T00:51:39;8.40;99.90
65036;DHT22;51603;49.300;8.880;2023-02-24T00:54:07;8.50;99.90
65036;DHT22;51603;49.300;8.880;2023-02-24T00:56:34;8.50;99.90
65036;DHT22;51603;49.300;8.880;2023-02-24T00:59:01;8.50;99.90
65036;DHT22;51603;49.300;8.880;2023-02-24T01:01:29;8.50;99.90
65036;DHT22;51603;49.300;8.880;2023-02-24T01:03:55;8.50;99.90
65036;DHT22;51603;49.300;8.880;2023-02-24T01:06:23;8.40;99.90
65036;DHT22;51603;49.300;8.880;2023-02-24T01:08:52;8.40;99.90
65036;DHT22;51603;49.300;8.880;2023-02-24T01:11:20;8.40;99.90
65036;DHT22;51603;49.300;8.880;2023-02-24T01:14:11;8.40;99.90
65036;DHT22;51603;49.300;8.880;2023-02-24T01:16:38;8.40;99.90
65036;DHT22;51603;49.300;8.880;2023-02-24T01:19:05;8.40;99.90
65036;DHT22;51603;49.300;8.880;2023-02-24T01:21:31;8.40;99.90
65036;DHT22;51603;49.300;8.880;2023-02-24T01:23:57;8.40;99.90
65036;DHT22;51603;49.300;8.880;2023-02-24T01:26:23;8.40;99.90
65036;DHT22;51603;49.300;8.880;2023-02-24T01:28:50;8.40;99.90
65036;DHT22;51603;49.300;8.880;2023-02-24T01:31:16;8.40;99.90
65036;DHT22;51603;49.300;8.880;2023-02-24T01:33:44;8.40;99.90
65036;DHT22;51603;49.300;8.880;2023-02-24T01:36:16;8.40;99.90
65036;DHT22;51603;49.300;8.880;2023-02-24T01:38:43;8.40;99.90
65036;DHT22;51603;49.300;8.880;2023-02-24T01:41:11;8.40;99.90
65036;DHT22;51603;49.300;8.880;2023-02-24T01:46:26;8.20;99.90
65036;DHT22;51603;49.300;8.880;2023-02-24T01:48:56;8.20;99.90
65036;DHT22;51603;49.300;8.880;2023-02-24T01:51:23;8.10;99.90
65036;DHT22;51603;49.300;8.880;2023-02-24T01:53:49;8.10;99.90
65036;DHT22;51603;49.300;8.880;2023-02-24T01:56:15;8.10;99.90
65036;DHT22;51603;49.300;8.880;2023-02-24T01:58:41;8.00;99.90
65036;DHT22;51603;49.300;8.880;2023-02-24T02:01:08;8.00;99.90
65036;DHT22;51603;49.300;8.880;2023-02-24T02:03:37;7.90;99.90
65036;DHT22;51603;49.300;8.880;2023-02-24T02:06:07;7.80;99.90
65036;DHT22;51603;49.300;8.880;2023-02-24T02:08:37;7.80;99.90
65036;DHT22;51603;49.300;8.880;2023-02-24T02:11:05;7.80;99.90
65036;DHT22;51603;49.300;8.880;2023-02-24T02:13:31;7.80;99.90
65036;DHT22;51603;49.300;8.880;2023-02-24T02:19:26;7.80;99.90
65036;DHT22;51603;49.300;8.880;2023-02-24T02:31:21;7.80;99.90
65036;DHT22;51603;49.300;8.880;2023-02-24T02:42:27;7.60;99.90
65036;DHT22;51603;49.300;8.880;2023-02-24T02:45:07;7.60;99.90
65036;DHT22;51603;49.300;8.880;2023-02-24T02:47:44;7.60;99.90
65036;DHT22;51603;49.300;8.880;2023-02-24T02:50:22;7.50;99.90
65036;DHT22;51603;49.300;8.880;2023-02-24T02:52:58;7.50;99.90
65036;DHT22;51603;49.300;8.880;2023-02-24T02:58:04;7.40;99.90
65036;DHT22;51603;49.300;8.880;2023-02-24T03:00:37;7.40;99.90
65036;DHT22;51603;49.300;8.880;2023-02-24T03:03:10;7.40;99.90
65036;DHT22;51603;49.300;8.880;2023-02-24T03:05:48;7.40;99.90
65036;DHT22;51603;49.300;8.880;2023-02-24T03:08:19;7.40;99.90
65036;DHT22;51603;49.300;8.880;2023-02-24T03:10:46;7.40;99.90
65036;DHT22;51603;49.300;8.880;2023-02-24T03:13:17;7.40;99.90
65036;DHT22;51603;49.300;8.880;2023-02-24T03:15:45;7.50;99.90
65036;DHT22;51603;49.300;8.880;2023-02-24T03:18:17;7.50;99.90
65036;DHT22;51603;49.300;8.880;2023-02-24T03:20:51;7.50;99.90
65036;DHT22;51603;49.300;8.880;2023-02-24T03:23:19;7.40;99.90
65036;DHT22;51603;49.300;8.880;2023-02-24T03:26:12;7.40;99.90
65036;DHT22;51603;49.300;8.880;2023-02-24T03:29:10;7.40;99.90
65036;DHT22;51603;49.300;8.880;2023-02-24T03:32:08;7.30;99.90
65036;DHT22;51603;49.300;8.880;2023-02-24T03:34:54;7.40;99.90
65036;DHT22;51603;49.300;8.880;2023-02-24T03:37:21;7.30;99.90
65036;DHT22;51603;49.300;8.880;2023-02-24T03:40:05;7.30;99.90
65036;DHT22;51603;49.300;8.880;2023-02-24T03:42:50;7.30;99.90
65036;DHT22;51603;49.300;8.880;2023-02-24T03:45:17;7.40;99.90
65036;DHT22;51603;49.300;8.880;2023-02-24T03:47:43;7.40;99.90
65036;DHT22;51603;49.300;8.880;2023-02-24T03:50:14;7.40;99.90
65036;DHT22;51603;49.300;8.880;2023-02-24T04:06:57;7.40;99.90
65036;DHT22;51603;49.300;8.880;2023-02-24T04:12:19;7.30;99.90
65036;DHT22;51603;49.300;8.880;2023-02-24T04:17:45;7.30;99.90
65036;DHT22;51603;49.300;8.880;2023-02-24T04:20:14;7.30;99.90
65036;DHT22;51603;49.300;8.880;2023-02-24T04:22:45;7.30;99.90
65036;DHT22;51603;49.300;8.880;2023-02-24T04:25:17;7.30;99.90
65036;DHT22;51603;49.300;8.880;2023-02-24T04:27:45;7.30;99.90
65036;DHT22;51603;49.300;8.880;2023-02-24T04:30:12;7.30;99.90
65036;DHT22;51603;49.300;8.880;2023-02-24T04:32:38;7.20;99.90
65036;DHT22;51603;49.300;8.880;2023-02-24T04:35:08;7.20;99.90
65036;DHT22;51603;49.300;8.880;2023-02-24T04:37:36;7.20;99.90
65036;DHT22;51603;49.300;8.880;2023-02-24T04:40:04;7.20;99.90
65036;DHT22;51603;49.300;8.880;2023-02-24T04:42:35;7.30;99.90
65036;DHT22;51603;49.300;8.880;2023-02-24T04:45:21;7.30;99.90
65036;DHT22;51603;49.300;8.880;2023-02-24T04:47:47;7.30;99.90
65036;DHT22;51603;49.300;8.880;2023-02-24T04:50:18;7.30;99.90
65036;DHT22;51603;49.300;8.880;2023-02-24T04:52:55;7.30;99.90
65036;DHT22;51603;49.300;8.880;2023-02-24T04:55:24;7.30;99.90
65036;DHT22;51603;49.300;8.880;2023-02-24T04:57:56;7.30;99.90
65036;DHT22;51603;49.300;8.880;2023-02-24T05:00:22;7.30;99.90
65036;DHT22;51603;49.300;8.880;2023-02-24T05:02:52;7.30;99.90
65036;DHT22;51603;49.300;8.880;2023-02-24T05:05:19;7.30;99.90
65036;DHT22;51603;49.300;8.880;2023-02-24T05:08:01;7.30;99.90
65036;DHT22;51603;49.300;8.880;2023-02-24T05:10:29;7.20;99.90
65036;DHT22;51603;49.300;8.880;2023-02-24T05:12:59;7.20;99.90
65036;DHT22;51603;49.300;8.880;2023-02-24T05:15:26;7.20;99.90
65036;DHT22;51603;49.300;8.880;2023-02-24T05:17:59;7.20;99.90
65036;DHT22;51603;49.300;8.880;2023-02-24T05:20:27;7.10;99.90
65036;DHT22;51603;49.300;8.880;2023-02-24T05:23:11;7.10;99.90
65036;DHT22;51603;49.300;8.880;2023-02-24T05:25:37;7.10;99.90
65036;DHT22;51603;49.300;8.880;2023-02-24T05:28:06;7.10;99.90
65036;DHT22;51603;49.300;8.880;2023-02-24T05:30:31;7.10;99.90
65036;DHT22;51603;49.300;8.880;2023-02-24T05:32:57;7.10;99.90
65036;DHT22;51603;49.300;8.880;2023-02-24T05:35:23;7.10;99.90
65036;DHT22;51603;49.300;8.880;2023-02-24T05:37:49;7.00;99.90
65036;DHT22;51603;49.300;8.880;2023-02-24T05:40:16;7.00;99.90
65036;DHT22;51603;49.300;8.880;2023-02-24T05:42:44;7.10;99.90
65036;DHT22;51603;49.300;8.880;2023-02-24T05:45:10;7.00;99.90
65036;DHT22;51603;49.300;8.880;2023-02-24T05:47:37;7.00;99.90
65036;DHT22;51603;49.300;8.880;2023-02-24T05:50:04;7.00;99.90
65036;DHT22;51603;49.300;8.880;2023-02-24T05:52:30;7.00;99.90
65036;DHT22;51603;49.300;8.880;2023-02-24T05:54:56;7.00;99.90
65036;DHT22;51603;49.300;8.880;2023-02-24T05:57:21;7.00;99.90
65036;DHT22;51603;49.300;8.880;2023-02-24T05:59:51;7.00;99.90
65036;DHT22;51603;49.300;8.880;2023-02-24T06:02:20;7.00;99.90
65036;DHT22;51603;49.300;8.880;2023-02-24T06:04:52;7.00;99.90
65036;DHT22;51603;49.300;8.880;2023-02-24T06:07:23;6.90;99.90
65036;DHT22;51603;49.300;8.880;2023-02-24T06:09:56;6.90;99.90
65036;DHT22;51603;49.300;8.880;2023-02-24T06:12:27;6.90;99.90
65036;DHT22;51603;49.300;8.880;2023-02-24T06:14:53;6.80;99.90
65036;DHT22;51603;49.300;8.880;2023-02-24T06:17:20;6.90;99.90
65036;DHT22;51603;49.300;8.880;2023-02-24T06:19:48;6.90;99.90
65036;DHT22;51603;49.300;8.880;2023-02-24T06:22:16;6.90;99.90
65036;DHT22;51603;49.300;8.880;2023-02-24T06:24:43;6.90;99.90
65036;DHT22;51603;49.300;8.880;2023-02-24T06:27:14;6.90;99.90
65036;DHT22;51603;49.300;8.880;2023-02-24T06:29:50;6.80;99.90
65036;DHT22;51603;49.300;8.880;2023-02-24T06:32:22;6.80;99.90
65036;DHT22;51603;49.300;8.880;2023-02-24T06:34:48;6.80;99.90
65036;DHT22;51603;49.300;8.880;2023-02-24T06:37:16;6.80;99.90
65036;DHT22;51603;49.300;8.880;2023-02-24T06:39:42;6.80;99.90
65036;DHT22;51603;49.300;8.880;2023-02-24T06:42:08;6.80;99.90
65036;DHT22;51603;49.300;8.880;2023-02-24T06:44:37;6.80;99.90
65036;DHT22;51603;49.300;8.880;2023-02-24T06:47:04;6.80;99.90
65036;DHT22;51603;49.300;8.880;2023-02-24T06:49:30;6.80;99.90
65036;DHT22;51603;49.300;8.880;2023-02-24T06:51:56;6.80;99.90
65036;DHT22;51603;49.300;8.880;2023-02-24T06:54:23;6.80;99.90
65036;DHT22;51603;49.300;8.880;2023-02-24T06:56:52;6.80;99.90
65036;DHT22;51603;49.300;8.880;2023-02-24T06:59:18;6.80;99.90
65036;DHT22;51603;49.300;8.880;2023-02-24T07:01:47;6.80;99.90
65036;DHT22;51603;49.300;8.880;2023-02-24T07:04:14;6.80;99.90
65036;DHT22;51603;49.300;8.880;2023-02-24T07:06:41;6.90;99.90
65036;DHT22;51603;49.300;8.880;2023-02-24T07:09:12;6.90;99.90
65036;DHT22;51603;49.300;8.880;2023-02-24T07:11:41;6.90;99.90
65036;DHT22;51603;49.300;8.880;2023-02-24T07:14:09;7.00;99.90
65036;DHT22;51603;49.300;8.880;2023-02-24T07:16:36;6.90;99.90
65036;DHT22;51603;49.300;8.880;2023-02-24T07:19:08;6.90;99.90
65036;DHT22;51603;49.300;8.880;2023-02-24T07:21:36;6.90;99.90
65036;DHT22;51603;49.300;8.880;2023-02-24T07:24:08;6.80;99.90
65036;DHT22;51603;49.300;8.880;2023-02-24T07:26:36;6.90;99.90
65036;DHT22;51603;49.300;8.880;2023-02-24T07:29:15;6.90;99.90
65036;DHT22;51603;49.300;8.880;2023-02-24T07:31:40;6.90;99.90
65036;DHT22;51603;49.300;8.880;2023-02-24T07:34:06;6.90;99.90
65036;DHT22;51603;49.300;8.880;2023-02-24T07:36:32;6.90;99.90
65036;DHT22;51603;49.300;8.880;2023-02-24T07:39:12;6.90;99.90
65036;DHT22;51603;49.300;8.880;2023-02-24T07:41:39;6.90;99.90
65036;DHT22;51603;49.300;8.880;2023-02-24T07:44:11;6.80;99.90
65036;DHT22;51603;49.300;8.880;2023-02-24T07:46:38;6.90;99.90
65036;DHT22;51603;49.300;8.880;2023-02-24T07:49:03;6.90;99.90
65036;DHT22;51603;49.300;8.880;2023-02-24T07:51:34;6.80;99.90
65036;DHT22;51603;49.300;8.880;2023-02-24T07:54:01;6.80;99.90
65036;DHT22;51603;49.300;8.880;2023-02-24T07:56:29;6.80;99.90
65036;DHT22;51603;49.300;8.880;2023-02-24T07:59:00;6.80;99.90
65036;DHT22;51603;49.300;8.880;2023-02-24T08:01:27;6.90;99.90
65036;DHT22;51603;49.300;8.880;2023-02-24T08:03:55;6.90;99.90
65036;DHT22;51603;49.300;8.880;2023-02-24T08:06:22;6.90;99.90
65036;DHT22;51603;49.300;8.880;2023-02-24T08:08:53;6.80;99.90
65036;DHT22;51603;49.300;8.880;2023-02-24T08:11:30;6.80;99.90
65036;DHT22;51603;49.300;8.880;2023-02-24T08:14:02;6.80;99.90
65036;DHT22;51603;49.300;8.880;2023-02-24T08:16:29;6.80;99.90
65036;DHT22;51603;49.300;8.880;2023-02-24T08:19:11;6.80;99.90
65036;DHT22;51603;49.300;8.880;2023-02-24T08:21:39;6.80;99.90
65036;DHT22;51603;49.300;8.880;2023-02-24T08:24:06;6.80;99.90
65036;DHT22;51603;49.300;8.880;2023-02-24T08:29:11;6.80;99.90
65036;DHT22;51603;49.300;8.880;2023-02-24T08:31:37;6.80;99.90
65036;DHT22;51603;49.300;8.880;2023-02-24T08:34:02;6.80;99.90
65036;DHT22;51603;49.300;8.880;2023-02-24T08:36:28;6.80;99.90
65036;DHT22;51603;49.300;8.880;2023-02-24T08:38:53;6.90;99.90
65036;DHT22;51603;49.300;8.880;2023-02-24T08:41:24;6.90;99.90
65036;DHT22;51603;49.300;8.880;2023-02-24T08:44:09;6.90;99.90
65036;DHT22;51603;49.300;8.880;2023-02-24T08:46:35;6.90;99.90
65036;DHT22;51603;49.300;8.880;2023-02-24T08:49:02;6.90;99.90
65036;DHT22;51603;49.300;8.880;2023-02-24T08:51:37;6.90;99.90
65036;DHT22;51603;49.300;8.880;2023-02-24T08:54:13;7.00;99.90
65036;DHT22;51603;49.300;8.880;2023-02-24T08:56:41;7.10;99.90
65036;DHT22;51603;49.300;8.880;2023-02-24T08:59:14;7.10;99.90
65036;DHT22;51603;49.300;8.880;2023-02-24T09:01:55;7.10;99.90
65036;DHT22;51603;49.300;8.880;2023-02-24T09:04:45;7.10;99.90
65036;DHT22;51603;49.300;8.880;2023-02-24T09:07:20;7.30;99.90
65036;DHT22;51603;49.300;8.880;2023-02-24T09:09:46;7.30;99.90
65036;DHT22;51603;49.300;8.880;2023-02-24T09:12:13;7.40;99.90
65036;DHT22;51603;49.300;8.880;2023-02-24T09:14:47;7.40;99.90
65036;DHT22;51603;49.300;8.880;2023-02-24T09:17:14;7.40;99.90
65036;DHT22;51603;49.300;8.880;2023-02-24T09:19:49;7.50;99.90
65036;DHT22;51603;49.300;8.880;2023-02-24T09:22:17;7.60;99.90
65036;DHT22;51603;49.300;8.880;2023-02-24T09:25:13;7.60;99.90
65036;DHT22;51603;49.300;8.880;2023-02-24T09:30:43;7.70;99.90
65036;DHT22;51603;49.300;8.880;2023-02-24T09:33:19;7.80;99.90
65036;DHT22;51603;49.300;8.880;2023-02-24T09:35:54;7.80;99.90
65036;DHT22;51603;49.300;8.880;2023-02-24T09:38:27;7.80;99.90
65036;DHT22;51603;49.300;8.880;2023-02-24T09:41:40;7.90;99.90
65036;DHT22;51603;49.300;8.880;2023-02-24T09:44:39;7.90;99.90
65036;DHT22;51603;49.300;8.880;2023-02-24T09:52:52;8.20;99.90
65036;DHT22;51603;49.300;8.880;2023-02-24T09:55:32;8.30;99.90
65036;DHT22;51603;49.300;8.880;2023-02-24T10:06:43;8.60;99.90
65036;DHT22;51603;49.300;8.880;2023-02-24T10:09:44;8.60;99.90
65036;DHT22;51603;49.300;8.880;2023-02-24T10:12:18;8.60;99.90
65036;DHT22;51603;49.300;8.880;2023-02-24T10:15:02;8.70;99.90
65036;DHT22;51603;49.300;8.880;2023-02-24T10:17:49;8.60;99.90
65036;DHT22;51603;49.300;8.880;2023-02-24T10:20:19;8.70;99.90
65036;DHT22;51603;49.300;8.880;2023-02-24T10:23:32;8.70;99.90
65036;DHT22;51603;49.300;8.880;2023-02-24T10:31:28;8.90;99.90
65036;DHT22;51603;49.300;8.880;2023-02-24T10:34:08;9.00;99.90
65036;DHT22;51603;49.300;8.880;2023-02-24T10:36:34;9.10;99.90
65036;DHT22;51603;49.300;8.880;2023-02-24T10:39:21;9.10;99.90
65036;DHT22;51603;49.300;8.880;2023-02-24T10:41:53;9.10;99.90
65036;DHT22;51603;49.300;8.880;2023-02-24T10:44:23;9.10;99.90
65036;DHT22;51603;49.300;8.880;2023-02-24T10:47:01;9.10;99.90
65036;DHT22;51603;49.300;8.880;2023-02-24T10:49:40;9.20;99.90
65036;DHT22;51603;49.300;8.880;2023-02-24T10:52:11;9.20;99.90
65036;DHT22;51603;49.300;8.880;2023-02-24T10:54:58;9.20;99.90
65036;DHT22;51603;49.300;8.880;2023-02-24T10:57:40;9.20;99.90
65036;DHT22;51603;49.300;8.880;2023-02-24T11:00:18;9.20;99.90
65036;DHT22;51603;49.300;8.880;2023-02-24T11:03:07;9.30;99.90
65036;DHT22;51603;49.300;8.880;2023-02-24T11:05:43;9.40;99.90
65036;DHT22;51603;49.300;8.880;2023-02-24T11:08:28;9.30;99.90
65036;DHT22;51603;49.300;8.880;2023-02-24T11:13:57;9.30;99.90
65036;DHT22;51603;49.300;8.880;2023-02-24T11:16:47;9.20;99.90
65036;DHT22;51603;49.300;8.880;2023-02-24T11:19:38;9.10;99.90
65036;DHT22;51603;49.300;8.880;2023-02-24T11:22:07;9.10;99.90
65036;DHT22;51603;49.300;8.880;2023-02-24T11:24:36;9.20;99.90
65036;DHT22;51603;49.300;8.880;2023-02-24T11:27:03;9.30;99.90
65036;DHT22;51603;49.300;8.880;2023-02-24T11:29:53;9.40;99.90
65036;DHT22;51603;49.300;8.880;2023-02-24T11:40:29;10.20;99.90
65036;DHT22;51603;49.300;8.880;2023-02-24T11:43:16;10.30;99.90
65036;DHT22;51603;49.300;8.880;2023-02-24T11:45:47;10.30;99.90
65036;DHT22;51603;49.300;8.880;2023-02-24T11:49:01;10.20;99.90
65036;DHT22;51603;49.300;8.880;2023-02-24T11:51:14;10.00;99.90
65036;DHT22;51603;49.300;8.880;2023-02-24T11:56:15;9.90;99.90
65036;DHT22;51603;49.300;8.880;2023-02-24T11:59:05;10.00;99.90
65036;DHT22;51603;49.300;8.880;2023-02-24T12:01:57;10.10;99.90
65036;DHT22;51603;49.300;8.880;2023-02-24T12:04:30;10.10;99.90
65036;DHT22;51603;49.300;8.880;2023-02-24T12:09:31;10.10;99.90
65036;DHT22;51603;49.300;8.880;2023-02-24T12:12:03;10.10;99.90
65036;DHT22;51603;49.300;8.880;2023-02-24T12:14:35;10.30;99.90
65036;DHT22;51603;49.300;8.880;2023-02-24T12:22:48;10.60;99.90
65036;DHT22;51603;49.300;8.880;2023-02-24T12:25:15;10.60;99.90
65036;DHT22;51603;49.300;8.880;2023-02-24T12:27:59;10.60;99.90
65036;DHT22;51603;49.300;8.880;2023-02-24T12:47:37;10.00;99.90
65036;DHT22;51603;49.300;8.880;2023-02-24T12:52:35;10.00;99.90
65036;DHT22;51603;49.300;8.880;2023-02-24T12:55:11;10.00;99.90
65036;DHT22;51603;49.300;8.880;2023-02-24T13:09:04;10.10;99.90
65036;DHT22;51603;49.300;8.880;2023-02-24T13:14:39;10.20;99.90
65036;DHT22;51603;49.300;8.880;2023-02-24T13:19:40;10.50;99.90
65036;DHT22;51603;49.300;8.880;2023-02-24T13:22:39;10.70;99.90
65036;DHT22;51603;49.300;8.880;2023-02-24T13:27:34;10.80;99.90
65036;DHT22;51603;49.300;8.880;2023-02-24T13:32:40;11.00;99.90
65036;DHT22;51603;49.300;8.880;2023-02-24T13:37:46;10.90;99.90
65036;DHT22;51603;49.300;8.880;2023-02-24T13:43:03;10.50;99.90
65036;DHT22;51603;49.300;8.880;2023-02-24T13:48:26;10.40;99.90
65036;DHT22;51603;49.300;8.880;2023-02-24T13:54:39;10.30;99.90
65036;DHT22;51603;49.300;8.880;2023-02-24T13:56:54;10.30;99.90
65036;DHT22;51603;49.300;8.880;2023-02-24T14:02:00;10.20;99.90
65036;DHT22;51603;49.300;8.880;2023-02-24T14:04:31;10.20;99.90
65036;DHT22;51603;49.300;8.880;2023-02-24T14:07:28;10.20;99.90
65036;DHT22;51603;49.300;8.880;2023-02-24T14:10:42;10.20;99.90
65036;DHT22;51603;49.300;8.880;2023-02-24T14:13:06;10.20;99.90
65036;DHT22;51603;49.300;8.880;2023-02-24T14:15:33;10.20;99.90
65036;DHT22;51603;49.300;8.880;2023-02-24T14:18:04;10.20;99.90
65036;DHT22;51603;49.300;8.880;2023-02-24T14:20:32;10.30;99.90
65036;DHT22;51603;49.300;8.880;2023-02-24T14:22:59;10.30;99.90
65036;DHT22;51603;49.300;8.880;2023-02-24T14:25:33;10.30;99.90
65036;DHT22;51603;49.300;8.880;2023-02-24T14:28:00;10.40;99.90
65036;DHT22;51603;49.300;8.880;2023-02-24T14:30:30;10.30;99.90
65036;DHT22;51603;49.300;8.880;2023-02-24T14:32:57;10.30;99.90
65036;DHT22;51603;49.300;8.880;2023-02-24T14:35:44;10.20;99.90
65036;DHT22;51603;49.300;8.880;2023-02-24T14:40:56;10.20;99.90
65036;DHT22;51603;49.300;8.880;2023-02-24T14:43:21;10.20;99.90
65036;DHT22;51603;49.300;8.880;2023-02-24T14:45:51;10.20;99.90
65036;DHT22;51603;49.300;8.880;2023-02-24T14:48:25;10.20;99.90
65036;DHT22;51603;49.300;8.880;2023-02-24T14:50:55;10.20;99.90
65036;DHT22;51603;49.300;8.880;2023-02-24T14:53:26;10.20;99.90
65036;DHT22;51603;49.300;8.880;2023-02-24T14:55:55;10.20;99.90
65036;DHT22;51603;49.300;8.880;2023-02-24T14:58:30;10.20;99.90
65036;DHT22;51603;49.300;8.880;2023-02-24T15:01:10;10.20;99.90
65036;DHT22;51603;49.300;8.880;2023-02-24T15:03:49;10.20;99.90
65036;DHT22;51603;49.300;8.880;2023-02-24T15:06:22;10.10;99.90
65036;DHT22;51603;49.300;8.880;2023-02-24T15:09:02;10.10;99.90
65036;DHT22;51603;49.300;8.880;2023-02-24T15:11:29;10.10;99.90
65036;DHT22;51603;49.300;8.880;2023-02-24T15:14:01;10.00;99.90
65036;DHT22;51603;49.300;8.880;2023-02-24T15:16:38;10.00;99.90
65036;DHT22;51603;49.300;8.880;2023-02-24T15:19:04;10.00;99.90
65036;DHT22;51603;49.300;8.880;2023-02-24T15:21:45;10.00;99.90
65036;DHT22;51603;49.300;8.880;2023-02-24T15:24:29;10.00;99.90
65036;DHT22;51603;49.300;8.880;2023-02-24T15:27:25;10.00;99.90
65036;DHT22;51603;49.300;8.880;2023-02-24T15:30:24;10.00;99.90
65036;DHT22;51603;49.300;8.880;2023-02-24T15:32:59;10.00;99.90
65036;DHT22;51603;49.300;8.880;2023-02-24T15:35:25;10.00;99.90
65036;DHT22;51603;49.300;8.880;2023-02-24T15:37:51;10.00;99.90
65036;DHT22;51603;49.300;8.880;2023-02-24T15:40:21;10.10;99.90
65036;DHT22;51603;49.300;8.880;2023-02-24T15:42:51;10.10;99.90
65036;DHT22;51603;49.300;8.880;2023-02-24T15:45:43;10.00;99.90
65036;DHT22;51603;49.300;8.880;2023-02-24T15:48:20;10.00;99.90
65036;DHT22;51603;49.300;8.880;2023-02-24T15:50:46;10.00;99.90
65036;DHT22;51603;49.300;8.880;2023-02-24T15:53:12;10.00;99.90
65036;DHT22;51603;49.300;8.880;2023-02-24T15:55:40;10.00;99.90
65036;DHT22;51603;49.300;8.880;2023-02-24T15:58:14;10.00;99.90
65036;DHT22;51603;49.300;8.880;2023-02-24T16:00:41;9.90;99.90
65036;DHT22;51603;49.300;8.880;2023-02-24T16:03:07;9.90;99.90
65036;DHT22;51603;49.300;8.880;2023-02-24T16:05:33;9.90;99.90
65036;DHT22;51603;49.300;8.880;2023-02-24T16:07:58;9.80;99.90
65036;DHT22;51603;49.300;8.880;2023-02-24T16:10:26;9.80;99.90
65036;DHT22;51603;49.300;8.880;2023-02-24T16:13:00;9.80;99.90
65036;DHT22;51603;49.300;8.880;2023-02-24T16:15:32;9.70;99.90
65036;DHT22;51603;49.300;8.880;2023-02-24T16:18:00;9.70;99.90
65036;DHT22;51603;49.300;8.880;2023-02-24T16:20:28;9.70;99.90
65036;DHT22;51603;49.300;8.880;2023-02-24T16:23:00;9.60;99.90
65036;DHT22;51603;49.300;8.880;2023-02-24T16:25:27;9.60;99.90
65036;DHT22;51603;49.300;8.880;2023-02-24T16:27:53;9.60;99.90
65036;DHT22;51603;49.300;8.880;2023-02-24T16:30:23;9.50;99.90
65036;DHT22;51603;49.300;8.880;2023-02-24T16:32:49;9.50;99.90
65036;DHT22;51603;49.300;8.880;2023-02-24T16:35:15;9.50;99.90
65036;DHT22;51603;49.300;8.880;2023-02-24T16:37:40;9.50;99.90
65036;DHT22;51603;49.300;8.880;2023-02-24T16:40:17;9.40;99.90
65036;DHT22;51603;49.300;8.880;2023-02-24T16:42:45;9.40;99.90
65036;DHT22;51603;49.300;8.880;2023-02-24T16:45:11;9.40;99.90
65036;DHT22;51603;49.300;8.880;2023-02-24T16:47:36;9.30;99.90
65036;DHT22;51603;49.300;8.880;2023-02-24T16:50:02;9.30;99.90
65036;DHT22;51603;49.300;8.880;2023-02-24T16:52:28;9.30;99.90
65036;DHT22;51603;49.300;8.880;2023-02-24T16:54:53;9.20;99.90
65036;DHT22;51603;49.300;8.880;2023-02-24T16:57:19;9.20;99.90
65036;DHT22;51603;49.300;8.880;2023-02-24T16:59:50;9.20;99.90
65036;DHT22;51603;49.300;8.880;2023-02-24T17:02:19;9.10;99.90
65036;DHT22;51603;49.300;8.880;2023-02-24T17:04:46;9.10;99.90
65036;DHT22;51603;49.300;8.880;2023-02-24T17:07:11;9.10;99.90
65036;DHT22;51603;49.300;8.880;2023-02-24T17:09:38;9.00;99.90
65036;DHT22;51603;49.300;8.880;2023-02-24T17:12:04;9.10;99.90
65036;DHT22;51603;49.300;8.880;2023-02-24T17:14:30;9.10;99.90
65036;DHT22;51603;49.300;8.880;2023-02-24T17:16:55;9.00;99.90
65036;DHT22;51603;49.300;8.880;2023-02-24T17:19:21;9.00;99.90
65036;DHT22;51603;49.300;8.880;2023-02-24T17:21:46;9.00;99.90
65036;DHT22;51603;49.300;8.880;2023-02-24T17:24:17;9.00;99.90
65036;DHT22;51603;49.300;8.880;2023-02-24T17:26:44;9.00;99.90
65036;DHT22;51603;49.300;8.880;2023-02-24T17:29:10;9.00;99.90
65036;DHT22;51603;49.300;8.880;2023-02-24T17:31:37;9.00;99.90
65036;DHT22;51603;49.300;8.880;2023-02-24T17:34:03;8.90;99.90
65036;DHT22;51603;49.300;8.880;2023-02-24T17:36:28;8.90;99.90
65036;DHT22;51603;49.300;8.880;2023-02-24T17:38:54;8.90;99.90
65036;DHT22;51603;49.300;8.880;2023-02-24T17:41:21;8.90;99.90
65036;DHT22;51603;49.300;8.880;2023-02-24T17:43:49;8.90;99.90
65036;DHT22;51603;49.300;8.880;2023-02-24T17:46:15;8.80;99.90
65036;DHT22;51603;49.300;8.880;2023-02-24T17:48:40;8.80;99.90
65036;DHT22;51603;49.300;8.880;2023-02-24T17:51:06;8.80;99.90
65036;DHT22;51603;49.300;8.880;2023-02-24T17:53:31;8.80;99.90
65036;DHT22;51603;49.300;8.880;2023-02-24T17:56:04;8.70;99.90
65036;DHT22;51603;49.300;8.880;2023-02-24T17:58:30;8.70;99.90
65036;DHT22;51603;49.300;8.880;2023-02-24T18:00:56;8.60;99.90
65036;DHT22;51603;49.300;8.880;2023-02-24T18:03:22;8.60;99.90
65036;DHT22;51603;49.300;8.880;2023-02-24T18:05:52;8.60;99.90
65036;DHT22;51603;49.300;8.880;2023-02-24T18:08:21;8.50;99.90
65036;DHT22;51603;49.300;8.880;2023-02-24T18:10:46;8.40;99.90
65036;DHT22;51603;49.300;8.880;2023-02-24T18:13:12;8.50;99.90
65036;DHT22;51603;49.300;8.880;2023-02-24T18:15:37;8.50;99.90
65036;DHT22;51603;49.300;8.880;2023-02-24T18:18:03;8.40;99.90
65036;DHT22;51603;49.300;8.880;2023-02-24T18:20:29;8.50;99.90
65036;DHT22;51603;49.300;8.880;2023-02-24T18:22:54;8.40;99.90
65036;DHT22;51603;49.300;8.880;2023-02-24T18:25:20;8.40;99.90
65036;DHT22;51603;49.300;8.880;2023-02-24T18:27:45;8.40;99.90
65036;DHT22;51603;49.300;8.880;2023-02-24T18:30:11;8.40;99.90
65036;DHT22;51603;49.300;8.880;2023-02-24T18:32:37;8.40;99.90
65036;DHT22;51603;49.300;8.880;2023-02-24T18:35:09;8.50;99.90
65036;DHT22;51603;49.300;8.880;2023-02-24T18:37:34;8.50;99.90
65036;DHT22;51603;49.300;8.880;2023-02-24T18:40:00;8.50;99.90
65036;DHT22;51603;49.300;8.880;2023-02-24T18:42:25;8.50;99.90